createdAt,value
2023-12-23T00:01:02.897Z,1.35
2023-12-23T00:03:29.595Z,0.55
2023-12-23T00:05:56.309Z,0.47
2023-12-23T00:08:22.987Z,0.30
2023-12-23T00:10:49.948Z,0.30
2023-12-23T00:13:16.632Z,0.20
2023-12-23T00:15:43.243Z,1.33
2023-12-23T00:18:10.268Z,1.60
2023-12-23T00:20:37.646Z,0.40
2023-12-23T00:23:05.125Z,0.20
2023-12-23T00:25:31.818Z,0.40
2023-12-23T00:27:58.444Z,0.45
2023-12-23T00:30:25.099Z,0.20
2023-12-23T00:32:53.098Z,2.65
2023-12-23T00:35:19.832Z,0.22
2023-12-23T00:37:46.871Z,0.10
2023-12-23T00:40:13.873Z,0.57
2023-12-23T00:42:40.616Z,0.70
2023-12-23T00:45:07.913Z,0.60
2023-12-23T00:47:37.532Z,0.20
2023-12-23T00:50:06.186Z,0.38
2023-12-23T00:52:33.146Z,0.20
2023-12-23T00:55:00.902Z,0.10
2023-12-23T00:57:28.946Z,0.45
2023-12-23T00:59:56.319Z,1.67
2023-12-23T01:02:24.172Z,0.20
2023-12-23T01:04:50.930Z,0.20
2023-12-23T01:07:17.673Z,0.20
2023-12-23T01:09:44.314Z,0.17
2023-12-23T01:12:10.936Z,0.20
2023-12-23T01:14:37.803Z,2.42
2023-12-23T01:17:04.808Z,1.15
2023-12-23T01:19:32.008Z,0.50
2023-12-23T01:21:58.963Z,0.30
2023-12-23T01:24:25.637Z,0.20
2023-12-23T01:26:52.304Z,0.20
2023-12-23T01:29:19.810Z,0.43
2023-12-23T01:31:46.544Z,0.20
2023-12-23T01:34:13.318Z,0.43
2023-12-23T01:36:39.902Z,0.52
2023-12-23T01:39:06.511Z,0.20
2023-12-23T01:41:33.154Z,1.77
2023-12-23T01:43:59.833Z,0.28
2023-12-23T01:46:27.250Z,0.38
2023-12-23T01:48:55.249Z,0.30
2023-12-23T01:51:23.056Z,0.38
2023-12-23T01:53:50.320Z,1.13
2023-12-23T01:56:17.730Z,1.17
2023-12-23T01:58:44.618Z,1.13
2023-12-23T02:01:11.397Z,0.30
2023-12-23T02:03:38.894Z,1.38
2023-12-23T02:06:05.716Z,0.28
2023-12-23T02:08:32.431Z,0.20
2023-12-23T02:11:09.018Z,0.10
2023-12-23T02:13:52.438Z,0.30
2023-12-23T02:16:19.521Z,0.20
2023-12-23T02:18:46.609Z,0.30
2023-12-23T02:21:13.356Z,0.20
2023-12-23T02:23:40.024Z,3.47
2023-12-23T02:26:11.410Z,0.73
2023-12-23T02:28:41.551Z,0.20
2023-12-23T02:31:09.780Z,0.65
2023-12-23T02:33:37.204Z,0.50
2023-12-23T02:36:05.089Z,0.63
2023-12-23T02:38:31.751Z,0.30
2023-12-23T02:40:58.403Z,0.30
2023-12-23T02:43:25.013Z,0.30
2023-12-23T02:45:51.620Z,0.20
2023-12-23T02:48:18.362Z,0.20
2023-12-23T02:50:45.097Z,0.20
2023-12-23T02:53:11.778Z,0.20
2023-12-23T02:55:38.556Z,0.32
2023-12-23T02:58:05.421Z,0.50
2023-12-23T03:00:32.153Z,0.30
2023-12-23T03:02:59.042Z,0.20
2023-12-23T03:05:27.053Z,0.20
2023-12-23T03:07:54.230Z,0.22
2023-12-23T03:10:20.840Z,0.20
2023-12-23T03:12:48.216Z,0.20
2023-12-23T03:15:15.205Z,2.60
2023-12-23T03:17:41.861Z,3.35
2023-12-23T03:20:10.001Z,5.60
2023-12-23T03:22:36.905Z,1.63
2023-12-23T03:25:03.951Z,3.20
2023-12-23T03:27:30.551Z,0.20
2023-12-23T03:29:57.378Z,0.30
2023-12-23T03:32:24.086Z,0.30
2023-12-23T03:34:52.025Z,0.20
2023-12-23T03:37:18.654Z,0.20
2023-12-23T03:39:45.269Z,0.63
2023-12-23T03:42:12.521Z,0.17
2023-12-23T03:44:39.166Z,0.68
2023-12-23T03:47:05.934Z,0.30
2023-12-23T03:49:32.558Z,0.35
2023-12-23T03:52:00.582Z,0.63
2023-12-23T03:54:27.214Z,2.00
2023-12-23T03:56:53.803Z,0.32
2023-12-23T03:59:20.635Z,0.20
2023-12-23T04:01:47.506Z,0.20
2023-12-23T04:04:14.218Z,0.20
2023-12-23T04:06:40.964Z,0.30
2023-12-23T04:09:07.804Z,0.52
2023-12-23T04:11:37.530Z,0.20
2023-12-23T04:14:04.611Z,0.28
2023-12-23T04:16:31.467Z,0.22
2023-12-23T04:18:58.613Z,1.98
2023-12-23T04:21:25.386Z,4.45
2023-12-23T04:23:51.975Z,0.30
2023-12-23T04:26:19.142Z,0.30
2023-12-23T04:28:45.924Z,0.30
2023-12-23T04:31:13.141Z,0.68
2023-12-23T04:33:40.076Z,0.65
2023-12-23T04:36:07.690Z,0.28
2023-12-23T04:38:36.316Z,0.25
2023-12-23T04:41:03.250Z,0.45
2023-12-23T04:43:31.551Z,0.30
2023-12-23T04:45:58.939Z,0.22
2023-12-23T04:48:26.807Z,0.20
2023-12-23T04:50:53.674Z,0.20
2023-12-23T04:53:22.373Z,1.60
2023-12-23T04:55:49.675Z,0.20
2023-12-23T04:58:16.375Z,0.32
2023-12-23T05:00:43.069Z,0.30
2023-12-23T05:03:09.682Z,0.28
2023-12-23T05:05:36.483Z,0.25
2023-12-23T05:08:03.548Z,0.70
2023-12-23T05:10:30.237Z,0.30
2023-12-23T05:12:56.851Z,1.55
2023-12-23T05:15:23.469Z,0.20
2023-12-23T05:17:50.610Z,0.30
2023-12-23T05:20:17.700Z,0.77
2023-12-23T05:22:44.848Z,0.20
2023-12-23T05:25:12.106Z,0.40
2023-12-23T05:27:38.730Z,0.20
2023-12-23T05:30:06.441Z,0.52
2023-12-23T05:32:33.245Z,0.25
2023-12-23T05:35:00.024Z,1.90
2023-12-23T05:37:26.680Z,0.30
2023-12-23T05:39:53.311Z,0.98
2023-12-23T05:42:19.895Z,0.30
2023-12-23T05:44:46.530Z,0.20
2023-12-23T05:47:13.471Z,0.40
2023-12-23T05:49:40.154Z,0.40
2023-12-23T05:52:06.837Z,0.30
2023-12-23T05:54:33.517Z,6.85
2023-12-23T05:57:00.264Z,0.20
2023-12-23T05:59:26.909Z,0.40
2023-12-23T06:01:53.705Z,0.20
2023-12-23T06:04:20.711Z,0.40
2023-12-23T06:06:47.474Z,0.20
2023-12-23T06:09:14.153Z,0.40
2023-12-23T06:11:40.844Z,0.35
2023-12-23T06:14:08.125Z,4.30
2023-12-23T06:16:40.193Z,1.85
2023-12-23T06:21:34.384Z,0.63
2023-12-23T06:24:01.124Z,3.20
2023-12-23T06:26:27.861Z,7.20
2023-12-23T06:28:54.626Z,3.65
2023-12-23T06:31:23.114Z,1.50
2023-12-23T06:33:50.162Z,4.05
2023-12-23T06:36:17.380Z,1.15
2023-12-23T06:38:44.172Z,1.48
2023-12-23T06:41:12.521Z,2.65
2023-12-23T06:43:46.381Z,1.70
2023-12-23T06:46:19.044Z,1.58
2023-12-23T06:48:45.827Z,1.75
2023-12-23T06:51:12.662Z,3.17
2023-12-23T06:53:39.492Z,1.48
2023-12-23T06:56:07.582Z,2.28
2023-12-23T06:58:34.328Z,4.43
2023-12-23T07:01:02.151Z,6.55
2023-12-23T07:03:28.840Z,3.05
2023-12-23T07:05:55.781Z,5.28
2023-12-23T07:08:22.673Z,4.03
2023-12-23T07:10:50.568Z,2.85
2023-12-23T07:13:17.218Z,1.58
2023-12-23T07:15:43.836Z,2.90
2023-12-23T07:18:12.014Z,2.47
2023-12-23T07:20:40.951Z,6.28
2023-12-23T07:23:07.620Z,2.47
2023-12-23T07:25:34.317Z,3.45
2023-12-23T07:28:01.163Z,2.13
2023-12-23T07:30:27.899Z,4.50
2023-12-23T07:32:54.946Z,4.53
2023-12-23T07:35:22.400Z,2.05
2023-12-23T07:37:49.163Z,1.38
2023-12-23T07:40:16.015Z,2.38
2023-12-23T07:42:42.831Z,1.73
2023-12-23T07:45:10.161Z,2.40
2023-12-23T07:47:36.787Z,1.80
2023-12-23T07:50:05.037Z,5.97
2023-12-23T07:52:31.866Z,6.78
2023-12-23T07:54:58.594Z,4.40
2023-12-23T07:57:25.222Z,4.07
2023-12-23T07:59:51.906Z,4.97
2023-12-23T08:02:18.655Z,4.25
2023-12-23T08:04:45.609Z,2.72
2023-12-23T08:07:12.587Z,3.85
2023-12-23T08:09:39.872Z,3.65
2023-12-23T08:12:08.169Z,5.60
2023-12-23T08:14:35.042Z,8.43
2023-12-23T08:17:01.680Z,4.80
2023-12-23T08:19:28.454Z,2.22
2023-12-23T08:21:55.069Z,5.78
2023-12-23T08:24:22.386Z,6.13
2023-12-23T08:26:49.022Z,3.50
2023-12-23T08:29:15.649Z,7.72
2023-12-23T08:31:46.136Z,3.30
2023-12-23T08:34:13.857Z,4.13
2023-12-23T08:36:40.521Z,4.10
2023-12-23T08:39:07.194Z,4.18
2023-12-23T08:41:36.435Z,3.10
2023-12-23T08:44:03.808Z,2.67
2023-12-23T08:46:31.537Z,3.70
2023-12-23T08:48:58.723Z,1.48
2023-12-23T08:51:25.481Z,0.77
2023-12-23T08:53:52.369Z,1.25
2023-12-23T08:56:19.117Z,5.10
2023-12-23T08:58:45.913Z,3.80
2023-12-23T09:01:12.739Z,3.17
2023-12-23T09:03:39.430Z,3.42
2023-12-23T09:06:07.615Z,1.40
2023-12-23T09:08:35.842Z,4.97
2023-12-23T09:11:06.059Z,3.70
2023-12-23T09:13:32.737Z,3.92
2023-12-23T09:16:02.417Z,4.07
2023-12-23T09:18:29.145Z,2.83
2023-12-23T09:20:55.815Z,6.03
2023-12-23T09:23:22.452Z,6.20
2023-12-23T09:25:49.214Z,4.78
2023-12-23T09:28:16.045Z,6.03
2023-12-23T09:30:42.673Z,3.00
2023-12-23T09:33:09.366Z,4.13
2023-12-23T09:35:36.149Z,4.47
2023-12-23T09:38:02.909Z,4.25
2023-12-23T09:40:29.608Z,3.35
2023-12-23T09:42:56.380Z,2.92
2023-12-23T09:45:23.678Z,3.78
2023-12-23T09:47:50.746Z,3.72
2023-12-23T09:50:17.779Z,4.05
2023-12-23T09:52:47.463Z,3.72
2023-12-23T09:55:18.060Z,3.67
2023-12-23T09:57:45.288Z,3.28
2023-12-23T10:00:13.140Z,3.08
2023-12-23T10:02:41.148Z,3.63
2023-12-23T10:05:08.751Z,3.65
2023-12-23T10:07:35.493Z,3.65
2023-12-23T10:10:02.085Z,4.38
2023-12-23T10:12:28.834Z,3.90
2023-12-23T10:14:55.494Z,3.90
2023-12-23T10:17:22.196Z,3.13
2023-12-23T10:19:49.550Z,5.22
2023-12-23T10:22:19.861Z,3.60
2023-12-23T10:24:46.549Z,2.28
2023-12-23T10:27:17.159Z,2.75
2023-12-23T10:29:45.471Z,3.83
2023-12-23T10:32:16.373Z,3.30
2023-12-23T10:34:51.063Z,3.13
2023-12-23T10:37:18.817Z,3.33
2023-12-23T10:39:52.076Z,3.45
2023-12-23T10:42:24.680Z,2.55
2023-12-23T10:44:52.578Z,3.45
2023-12-23T10:47:19.299Z,3.67
2023-12-23T10:49:47.470Z,2.95
2023-12-23T10:52:15.359Z,4.43
2023-12-23T10:54:42.035Z,3.80
2023-12-23T10:57:11.022Z,4.47
2023-12-23T10:59:37.859Z,4.55
2023-12-23T11:02:15.705Z,4.90
2023-12-23T11:04:52.434Z,3.65
2023-12-23T11:07:23.325Z,3.53
2023-12-23T11:09:52.659Z,2.95
2023-12-23T11:12:19.664Z,3.65
2023-12-23T11:14:47.587Z,3.55
2023-12-23T11:17:32.773Z,3.55
2023-12-23T11:20:01.160Z,3.03
2023-12-23T11:22:39.039Z,2.92
2023-12-23T11:25:39.562Z,3.50
2023-12-23T11:28:14.298Z,3.42
2023-12-23T11:30:51.727Z,3.60
2023-12-23T11:33:23.038Z,3.33
2023-12-23T11:35:51.010Z,3.30
2023-12-23T11:38:17.699Z,3.08
2023-12-23T11:40:44.888Z,3.63
2023-12-23T11:43:11.536Z,3.42
2023-12-23T11:45:41.059Z,4.30
2023-12-23T11:48:08.838Z,4.55
2023-12-23T11:50:35.579Z,5.05
2023-12-23T11:53:02.427Z,3.40
2023-12-23T11:55:29.624Z,5.18
2023-12-23T11:57:56.530Z,5.15
2023-12-23T12:00:23.242Z,6.55
2023-12-23T12:02:50.138Z,5.07
2023-12-23T12:05:16.997Z,8.88
2023-12-23T12:07:43.811Z,5.13
2023-12-23T12:10:11.497Z,3.78
2023-12-23T12:12:38.975Z,6.97
2023-12-23T12:15:06.143Z,4.30
2023-12-23T12:17:33.315Z,6.05
2023-12-23T12:20:01.392Z,4.18
2023-12-23T12:22:28.142Z,4.80
2023-12-23T12:24:54.858Z,6.00
2023-12-23T12:27:21.790Z,8.77
2023-12-23T12:29:48.376Z,6.60
2023-12-23T12:32:15.046Z,6.22
2023-12-23T12:34:43.417Z,5.25
2023-12-23T12:37:11.313Z,7.75
2023-12-23T12:39:37.991Z,6.65
2023-12-23T12:42:04.991Z,7.50
2023-12-23T12:44:33.534Z,8.35
2023-12-23T12:47:00.230Z,9.05
2023-12-23T12:49:27.091Z,5.15
2023-12-23T12:51:54.526Z,6.90
2023-12-23T12:54:25.576Z,7.38
2023-12-23T12:56:52.352Z,6.72
2023-12-23T12:59:19.180Z,8.77
2023-12-23T13:01:45.978Z,6.25
2023-12-23T13:04:12.634Z,8.30
2023-12-23T13:06:39.232Z,7.88
2023-12-23T13:09:06.037Z,6.53
2023-12-23T13:11:33.729Z,10.68
2023-12-23T13:14:00.645Z,5.72
2023-12-23T13:16:27.393Z,6.15
2023-12-23T13:18:59.941Z,8.43
2023-12-23T13:21:28.748Z,9.45
2023-12-23T13:23:55.660Z,7.30
2023-12-23T13:26:22.429Z,8.20
2023-12-23T13:28:52.151Z,7.05
2023-12-23T13:31:20.662Z,9.45
2023-12-23T13:33:47.479Z,9.27
2023-12-23T13:36:14.324Z,6.72
2023-12-23T13:38:44.714Z,7.88
2023-12-23T13:41:14.491Z,6.57
2023-12-23T13:43:41.271Z,8.32
2023-12-23T13:46:07.977Z,12.00
2023-12-23T13:48:34.652Z,7.30
2023-12-23T13:51:01.793Z,9.95
2023-12-23T13:53:28.585Z,8.85
2023-12-23T13:55:55.279Z,8.43
2023-12-23T13:58:21.968Z,6.38
2023-12-23T14:00:48.623Z,10.80
2023-12-23T14:03:16.560Z,9.23
2023-12-23T14:05:44.128Z,7.38
2023-12-23T14:08:10.922Z,6.78
2023-12-23T14:10:37.576Z,8.70
2023-12-23T14:13:04.419Z,7.53
2023-12-23T14:15:31.075Z,8.40
2023-12-23T14:17:57.807Z,8.38
2023-12-23T14:20:24.575Z,13.18
2023-12-23T14:22:53.189Z,10.68
2023-12-23T14:25:20.133Z,9.15
2023-12-23T14:27:46.835Z,9.10
2023-12-23T14:30:14.423Z,9.70
2023-12-23T14:32:41.865Z,8.75
2023-12-23T14:35:10.595Z,7.43
2023-12-23T14:37:45.125Z,11.50
2023-12-23T14:40:17.111Z,8.18
2023-12-23T14:42:43.868Z,9.10
2023-12-23T14:45:10.698Z,9.60
2023-12-23T14:47:37.613Z,9.10
2023-12-23T14:50:04.850Z,16.13
2023-12-23T14:52:31.533Z,7.88
2023-12-23T14:54:58.215Z,11.82
2023-12-23T14:57:25.961Z,9.20
2023-12-23T14:59:52.605Z,10.50
2023-12-23T15:02:19.810Z,6.47
2023-12-23T15:04:46.580Z,9.20
2023-12-23T15:07:13.309Z,10.90
2023-12-23T15:09:40.006Z,9.45
2023-12-23T15:12:06.849Z,7.05
2023-12-23T15:14:33.514Z,6.85
2023-12-23T15:17:01.381Z,4.72
2023-12-23T15:19:28.289Z,6.18
2023-12-23T15:21:56.611Z,3.40
2023-12-23T15:24:24.788Z,4.18
2023-12-23T15:26:51.467Z,4.55
2023-12-23T15:29:18.619Z,2.92
2023-12-23T15:31:45.345Z,2.33
2023-12-23T15:34:12.078Z,4.50
2023-12-23T15:36:38.773Z,3.10
2023-12-23T15:39:05.463Z,1.83
2023-12-23T15:41:32.362Z,0.98
2023-12-23T15:43:59.167Z,1.08
2023-12-23T15:46:25.806Z,3.38
2023-12-23T15:48:52.673Z,1.25
2023-12-23T15:51:19.955Z,1.60
2023-12-23T15:53:46.702Z,1.80
2023-12-23T15:56:14.175Z,1.02
2023-12-23T15:58:41.743Z,2.22
2023-12-23T16:01:08.716Z,4.10
2023-12-23T16:03:35.410Z,1.50
2023-12-23T16:06:02.448Z,1.45
2023-12-23T16:08:29.313Z,0.90
2023-12-23T16:10:55.980Z,0.90
2023-12-23T16:13:24.241Z,0.85
2023-12-23T16:15:50.867Z,0.93
2023-12-23T16:18:17.604Z,0.70
2023-12-23T16:20:44.260Z,4.03
2023-12-23T16:23:10.909Z,5.60
2023-12-23T16:25:37.525Z,0.80
2023-12-23T16:28:04.347Z,1.17
2023-12-23T16:30:31.031Z,3.28
2023-12-23T16:32:57.813Z,3.28
2023-12-23T16:35:24.570Z,1.38
2023-12-23T16:37:51.395Z,1.10
2023-12-23T16:40:18.023Z,1.00
2023-12-23T16:42:44.760Z,1.02
2023-12-23T16:45:15.672Z,1.42
2023-12-23T16:47:45.689Z,2.28
2023-12-23T16:50:14.122Z,2.53
2023-12-23T16:52:41.390Z,2.45
2023-12-23T16:55:08.508Z,0.85
2023-12-23T16:57:35.124Z,3.50
2023-12-23T17:00:02.002Z,0.77
2023-12-23T17:02:28.951Z,0.80
2023-12-23T17:04:55.744Z,1.08
2023-12-23T17:07:22.474Z,0.73
2023-12-23T17:09:49.181Z,2.22
2023-12-23T17:12:16.211Z,0.55
2023-12-23T17:14:42.877Z,1.30
2023-12-23T17:17:10.581Z,0.68
2023-12-23T17:19:37.277Z,3.30
2023-12-23T17:22:04.189Z,0.93
2023-12-23T17:24:30.800Z,0.93
2023-12-23T17:26:57.449Z,0.75
2023-12-23T17:29:24.098Z,0.70
2023-12-23T17:31:50.898Z,0.50
2023-12-23T17:34:17.638Z,0.70
2023-12-23T17:36:44.351Z,1.95
2023-12-23T17:39:11.090Z,0.50
2023-12-23T17:41:38.436Z,0.30
2023-12-23T17:44:05.499Z,0.82
2023-12-23T17:46:32.144Z,0.38
2023-12-23T17:48:59.011Z,0.95
2023-12-23T17:51:25.716Z,0.40
2023-12-23T17:53:52.435Z,2.45
2023-12-23T17:56:22.254Z,0.47
2023-12-23T17:58:48.986Z,0.40
2023-12-23T18:01:15.797Z,2.25
2023-12-23T18:03:42.592Z,0.70
2023-12-23T18:06:10.122Z,0.50
2023-12-23T18:08:37.419Z,2.28
2023-12-23T18:11:04.438Z,0.50
2023-12-23T18:13:31.188Z,0.40
2023-12-23T18:15:57.781Z,0.80
2023-12-23T18:18:24.466Z,1.33
2023-12-23T18:20:52.944Z,0.45
2023-12-23T18:23:19.879Z,0.30
2023-12-23T18:25:46.538Z,0.60
2023-12-23T18:28:14.021Z,0.45
2023-12-23T18:30:42.149Z,0.60
2023-12-23T18:33:08.985Z,0.45
2023-12-23T18:35:35.846Z,1.45
2023-12-23T18:38:02.580Z,2.03
2023-12-23T18:40:29.251Z,2.33
2023-12-23T18:43:00.007Z,1.00
2023-12-23T18:45:26.774Z,0.40
2023-12-23T18:47:53.694Z,1.10
2023-12-23T18:50:20.442Z,2.75
2023-12-23T18:52:47.090Z,1.83
2023-12-23T18:55:13.970Z,0.77
2023-12-23T18:57:41.534Z,1.67
2023-12-23T19:00:09.811Z,1.10
2023-12-23T19:02:36.878Z,1.00
2023-12-23T19:05:03.926Z,2.22
2023-12-23T19:07:30.779Z,2.95
2023-12-23T19:09:57.423Z,1.40
2023-12-23T19:12:24.781Z,0.28
2023-12-23T19:14:51.487Z,1.58
2023-12-23T19:17:18.310Z,3.17
2023-12-23T19:19:46.678Z,2.75
2023-12-23T19:22:14.016Z,0.90
2023-12-23T19:24:40.747Z,1.05
2023-12-23T19:27:07.475Z,0.50
2023-12-23T19:29:38.128Z,3.03
2023-12-23T19:32:05.476Z,2.03
2023-12-23T19:34:32.203Z,10.32
2023-12-23T19:36:58.797Z,1.00
2023-12-23T19:39:25.575Z,1.02
2023-12-23T19:41:52.256Z,5.75
2023-12-23T19:44:22.823Z,5.72
2023-12-23T19:46:49.578Z,3.38
2023-12-23T19:49:16.290Z,1.42
2023-12-23T19:51:42.994Z,0.80
2023-12-23T19:54:09.619Z,1.27
2023-12-23T19:56:36.402Z,0.38
2023-12-23T19:59:04.923Z,1.17
2023-12-23T20:01:31.846Z,0.75
2023-12-23T20:03:59.150Z,1.67
2023-12-23T20:06:25.904Z,0.60
2023-12-23T20:08:52.648Z,0.50
2023-12-23T20:11:28.602Z,0.93
2023-12-23T20:13:55.313Z,0.43
2023-12-23T20:16:28.668Z,1.08
2023-12-23T20:18:56.254Z,2.80
2023-12-23T20:21:23.756Z,0.80
2023-12-23T20:23:53.868Z,0.45
2023-12-23T20:26:21.043Z,0.30
2023-12-23T20:28:48.291Z,0.52
2023-12-23T20:31:16.030Z,0.32
2023-12-23T20:33:43.026Z,0.38
2023-12-23T20:36:09.816Z,1.90
2023-12-23T20:38:36.484Z,0.30
2023-12-23T20:41:03.334Z,0.30
2023-12-23T20:43:30.301Z,0.45
2023-12-23T20:45:56.976Z,0.73
2023-12-23T20:48:23.947Z,0.30
2023-12-23T20:50:52.920Z,1.27
2023-12-23T20:53:21.648Z,0.52
2023-12-23T20:55:48.718Z,0.55
2023-12-23T20:58:15.362Z,0.20
2023-12-23T21:00:41.990Z,0.40
2023-12-23T21:03:08.739Z,0.30
2023-12-23T21:05:35.821Z,2.08
2023-12-23T21:08:02.568Z,0.30
2023-12-23T21:10:29.369Z,0.30
2023-12-23T21:12:57.092Z,3.22
2023-12-23T21:15:23.712Z,3.17
2023-12-23T21:17:50.458Z,4.53
2023-12-23T21:20:17.472Z,1.73
2023-12-23T21:22:44.183Z,1.95
2023-12-23T21:25:10.956Z,2.65
2023-12-23T21:27:37.612Z,1.88
2023-12-23T21:30:05.285Z,2.80
2023-12-23T21:32:32.139Z,2.45
2023-12-23T21:34:59.141Z,2.75
2023-12-23T21:37:25.804Z,4.32
2023-12-23T21:39:52.436Z,3.05
2023-12-23T21:42:19.032Z,2.72
2023-12-23T21:44:45.661Z,4.70
2023-12-23T21:47:12.553Z,2.70
2023-12-23T21:49:39.473Z,1.50
2023-12-23T21:52:06.526Z,1.10
2023-12-23T21:54:33.153Z,1.65
2023-12-23T21:57:00.772Z,2.03
2023-12-23T21:59:27.501Z,3.45
2023-12-23T22:01:54.210Z,5.43
2023-12-23T22:04:20.859Z,5.70
2023-12-23T22:06:47.431Z,6.15
2023-12-23T22:09:14.015Z,13.02
2023-12-23T22:11:40.743Z,8.63
2023-12-23T22:14:07.439Z,2.03
2023-12-23T22:16:34.102Z,1.52
2023-12-23T22:19:00.758Z,0.93
2023-12-23T22:21:27.453Z,1.38
2023-12-23T22:23:54.096Z,3.85
2023-12-23T22:26:20.729Z,0.43
2023-12-23T22:28:47.369Z,0.50
2023-12-23T22:31:14.328Z,0.30
2023-12-23T22:33:41.128Z,0.50
2023-12-23T22:36:10.650Z,0.40
2023-12-23T22:38:37.423Z,0.40
2023-12-23T22:41:05.901Z,0.60
2023-12-23T22:43:33.033Z,2.55
2023-12-23T22:45:59.685Z,8.43
2023-12-23T22:48:26.433Z,6.93
2023-12-23T22:50:53.280Z,5.97
2023-12-23T22:53:19.941Z,4.30
2023-12-23T22:55:46.633Z,2.75
2023-12-23T22:58:13.293Z,1.50
2023-12-23T23:00:40.319Z,2.08
2023-12-23T23:03:07.046Z,1.55
2023-12-23T23:05:33.813Z,2.67
2023-12-23T23:08:01.971Z,2.92
2023-12-23T23:10:28.666Z,2.20
2023-12-23T23:12:55.229Z,2.20
2023-12-23T23:15:21.867Z,4.40
2023-12-23T23:17:48.795Z,2.95
2023-12-23T23:20:18.460Z,2.03
2023-12-23T23:22:45.150Z,3.08
2023-12-23T23:25:11.754Z,1.77
2023-12-23T23:27:38.440Z,3.70
2023-12-23T23:30:05.707Z,3.60
2023-12-23T23:32:32.623Z,2.25
2023-12-23T23:35:05.261Z,2.83
2023-12-23T23:37:37.828Z,3.67
2023-12-23T23:40:04.720Z,3.42
2023-12-23T23:42:31.373Z,5.03
2023-12-23T23:44:58.078Z,3.45
2023-12-23T23:47:24.790Z,1.75
2023-12-23T23:49:51.617Z,2.88
2023-12-23T23:52:18.257Z,3.97
2023-12-23T23:54:44.885Z,3.40
2023-12-23T23:57:11.508Z,3.03
2023-12-23T23:59:38.196Z,6.10
